createdAt,value
2023-03-28T00:01:46.717Z,53.60
2023-03-28T00:04:13.499Z,53.70
2023-03-28T00:06:40.702Z,53.40
2023-03-28T00:09:07.965Z,53.50
2023-03-28T00:11:35.116Z,53.70
2023-03-28T00:14:01.921Z,53.80
2023-03-28T00:16:32.818Z,53.70
2023-03-28T00:19:01.261Z,53.20
2023-03-28T00:21:30.505Z,53.40
2023-03-28T00:23:59.224Z,53.10
2023-03-28T00:26:26.139Z,53.40
2023-03-28T00:28:53.649Z,53.50
2023-03-28T00:31:21.050Z,53.30
2023-03-28T00:33:49.462Z,53.40
2023-03-28T00:36:17.626Z,53.40
2023-03-28T00:38:44.284Z,53.40
2023-03-28T00:41:11.648Z,53.40
2023-03-28T00:43:40.987Z,53.30
2023-03-28T00:46:15.350Z,53.30
2023-03-28T00:48:51.122Z,53.40
2023-03-28T00:51:21.849Z,53.60
2023-03-28T00:53:49.486Z,53.60
2023-03-28T00:56:18.068Z,53.90
2023-03-28T00:58:47.503Z,53.80
2023-03-28T01:01:16.325Z,53.90
2023-03-28T01:03:46.947Z,54.00
2023-03-28T01:06:16.187Z,54.10
2023-03-28T01:08:45.699Z,54.00
2023-03-28T01:11:13.564Z,54.10
2023-03-28T01:13:44.250Z,54.10
2023-03-28T01:16:11.987Z,53.80
2023-03-28T01:18:39.071Z,53.90
2023-03-28T01:21:28.675Z,54.70
2023-03-28T01:24:43.151Z,54.10
2023-03-28T01:27:14.859Z,54.10
2023-03-28T01:29:59.014Z,54.40
2023-03-28T01:33:17.062Z,54.30
2023-03-28T01:36:12.271Z,54.50
2023-03-28T01:39:06.427Z,54.80
2023-03-28T01:41:41.919Z,55.10
2023-03-28T01:44:17.023Z,55.00
2023-03-28T01:46:49.630Z,54.90
2023-03-28T01:49:27.848Z,54.90
2023-03-28T01:51:59.673Z,54.80
2023-03-28T01:54:33.032Z,54.80
2023-03-28T01:57:06.501Z,54.70
2023-03-28T01:59:37.777Z,54.60
2023-03-28T02:02:09.955Z,54.60
2023-03-28T02:04:39.071Z,54.40
2023-03-28T02:07:06.317Z,54.40
2023-03-28T02:09:37.525Z,54.10
2023-03-28T02:12:09.240Z,54.10
2023-03-28T02:14:40.832Z,53.80
2023-03-28T02:17:10.568Z,53.90
2023-03-28T02:19:38.503Z,54.00
2023-03-28T02:22:12.447Z,54.00
2023-03-28T02:24:40.792Z,54.00
2023-03-28T02:27:07.607Z,54.20
2023-03-28T02:29:35.193Z,54.10
2023-03-28T02:32:01.939Z,54.10
2023-03-28T02:34:28.869Z,54.10
2023-03-28T02:37:10.464Z,53.80
2023-03-28T02:39:47.928Z,53.90
2023-03-28T02:42:40.271Z,53.80
2023-03-28T02:45:23.613Z,53.80
2023-03-28T02:48:00.978Z,53.80
2023-03-28T02:50:35.468Z,54.10
2023-03-28T02:53:07.162Z,54.00
2023-03-28T02:55:41.649Z,54.20
2023-03-28T02:58:13.477Z,54.40
2023-03-28T03:00:40.253Z,54.60
2023-03-28T03:03:08.485Z,54.50
2023-03-28T03:05:35.227Z,54.60
2023-03-28T03:08:02.137Z,54.60
2023-03-28T03:10:28.956Z,54.80
2023-03-28T03:12:57.002Z,54.80
2023-03-28T03:15:24.050Z,54.70
2023-03-28T03:17:50.699Z,54.80
2023-03-28T03:20:17.400Z,55.10
2023-03-28T03:22:44.398Z,55.10
2023-03-28T03:25:13.867Z,55.30
2023-03-28T03:27:41.242Z,55.30
2023-03-28T03:30:10.799Z,55.20
2023-03-28T03:32:37.529Z,55.10
2023-03-28T03:35:04.976Z,54.80
2023-03-28T03:37:31.625Z,54.80
2023-03-28T03:39:58.301Z,54.60
2023-03-28T03:42:24.988Z,54.80
2023-03-28T03:44:51.725Z,54.80
2023-03-28T03:47:19.756Z,55.00
2023-03-28T03:49:46.404Z,55.10
2023-03-28T03:52:13.050Z,54.90
2023-03-28T03:54:39.701Z,54.70
2023-03-28T03:57:06.587Z,54.70
2023-03-28T03:59:33.472Z,54.50
2023-03-28T04:02:00.418Z,54.50
2023-03-28T04:04:29.045Z,54.60
2023-03-28T04:06:55.752Z,54.40
2023-03-28T04:09:22.535Z,54.30
2023-03-28T04:11:49.216Z,54.00
2023-03-28T04:14:15.979Z,54.00
2023-03-28T04:16:42.647Z,53.70
2023-03-28T04:19:10.143Z,53.70
2023-03-28T04:21:39.070Z,53.40
2023-03-28T04:24:06.560Z,53.40
2023-03-28T04:26:33.190Z,53.30
2023-03-28T04:28:59.965Z,53.20
2023-03-28T04:31:26.705Z,53.10
2023-03-28T04:33:53.387Z,53.20
2023-03-28T04:36:20.472Z,53.10
2023-03-28T04:38:48.817Z,52.90
2023-03-28T04:41:15.482Z,53.00
2023-03-28T04:43:42.368Z,52.90
2023-03-28T04:46:09.543Z,53.00
2023-03-28T04:48:36.394Z,53.00
2023-03-28T04:51:03.445Z,53.00
2023-03-28T04:53:30.071Z,53.00
2023-03-28T04:55:58.161Z,52.90
2023-03-28T04:58:25.111Z,52.90
2023-03-28T05:00:52.803Z,52.70
2023-03-28T05:03:21.086Z,52.90
2023-03-28T05:05:49.714Z,52.90
2023-03-28T05:08:18.746Z,52.90
2023-03-28T05:10:46.201Z,52.90
2023-03-28T05:13:14.836Z,52.90
2023-03-28T05:15:41.490Z,53.00
2023-03-28T05:18:08.668Z,53.10
2023-03-28T05:20:35.635Z,53.30
2023-03-28T05:23:02.739Z,53.40
2023-03-28T05:25:29.614Z,53.20
2023-03-28T05:27:56.296Z,53.40
2023-03-28T05:30:24.425Z,53.20
2023-03-28T05:32:51.114Z,53.40
2023-03-28T05:35:17.914Z,53.40
2023-03-28T05:37:46.925Z,53.40
2023-03-28T05:40:14.250Z,53.00
2023-03-28T05:42:41.230Z,53.00
2023-03-28T05:45:42.031Z,52.90
2023-03-28T05:48:49.454Z,52.80
2023-03-28T05:51:17.934Z,53.00
2023-03-28T05:53:44.804Z,53.10
2023-03-28T05:56:11.505Z,53.10
2023-03-28T05:58:38.185Z,53.30
2023-03-28T06:01:05.203Z,53.50
2023-03-28T06:03:32.090Z,53.50
2023-03-28T06:05:58.876Z,53.60
2023-03-28T06:08:26.973Z,53.50
2023-03-28T06:10:53.809Z,53.90
2023-03-28T06:13:20.507Z,54.10
2023-03-28T06:15:47.227Z,54.40
2023-03-28T06:18:14.016Z,54.10
2023-03-28T06:20:40.800Z,54.10
2023-03-28T06:23:07.534Z,54.50
2023-03-28T06:25:35.588Z,54.60
2023-03-28T06:28:02.309Z,54.60
2023-03-28T06:30:28.981Z,54.50
2023-03-28T06:32:55.680Z,54.60
2023-03-28T06:35:22.513Z,54.70
2023-03-28T06:37:49.269Z,54.70
2023-03-28T06:40:16.205Z,54.80
2023-03-28T06:42:44.237Z,54.70
2023-03-28T06:45:11.636Z,54.70
2023-03-28T06:47:38.309Z,54.60
2023-03-28T06:50:05.783Z,54.50
2023-03-28T06:52:32.446Z,54.50
2023-03-28T06:54:59.403Z,54.30
2023-03-28T06:57:26.340Z,54.20
2023-03-28T06:59:54.323Z,54.40
2023-03-28T07:02:21.215Z,55.00
2023-03-28T07:04:48.048Z,54.00
2023-03-28T07:07:14.970Z,54.00
2023-03-28T07:09:41.733Z,54.00
2023-03-28T07:12:08.414Z,53.80
2023-03-28T07:14:35.189Z,53.50
2023-03-28T07:17:03.277Z,53.20
2023-03-28T07:19:30.112Z,52.90
2023-03-28T07:21:56.795Z,52.80
2023-03-28T07:24:23.461Z,52.70
2023-03-28T07:26:50.160Z,52.50
2023-03-28T07:29:16.803Z,52.50
2023-03-28T07:31:43.575Z,52.40
2023-03-28T07:34:11.623Z,52.50
2023-03-28T07:36:38.308Z,52.20
2023-03-28T07:39:05.067Z,52.80
2023-03-28T07:41:31.818Z,51.40
2023-03-28T07:43:58.679Z,51.30
2023-03-28T07:46:25.598Z,51.10
2023-03-28T07:48:52.314Z,50.30
2023-03-28T07:51:20.320Z,49.50
2023-03-28T07:53:47.288Z,49.50
2023-03-28T07:56:14.062Z,50.20
2023-03-28T07:58:41.402Z,49.10
2023-03-28T08:01:09.811Z,49.40
2023-03-28T08:03:37.054Z,50.80
2023-03-28T08:06:06.458Z,49.90
2023-03-28T08:08:39.298Z,49.60
2023-03-28T08:11:06.637Z,49.80
2023-03-28T08:13:33.320Z,49.40
2023-03-28T08:16:00.032Z,50.00
2023-03-28T08:18:26.832Z,49.70
2023-03-28T08:20:59.242Z,49.70
2023-03-28T08:23:26.107Z,48.60
2023-03-28T08:25:59.588Z,49.00
2023-03-28T08:28:26.262Z,49.30
2023-03-28T08:30:52.954Z,48.00
2023-03-28T08:33:19.745Z,48.50
2023-03-28T08:35:46.477Z,48.40
2023-03-28T08:38:13.139Z,47.50
2023-03-28T08:40:47.626Z,49.80
2023-03-28T08:43:37.734Z,49.20
2023-03-28T08:46:04.651Z,49.50
2023-03-28T08:48:35.562Z,47.90
2023-03-28T08:51:07.514Z,48.50
2023-03-28T08:53:37.553Z,48.20
2023-03-28T08:56:06.144Z,47.70
2023-03-28T08:58:40.622Z,48.00
2023-03-28T09:01:09.894Z,46.70
2023-03-28T09:03:36.863Z,47.80
2023-03-28T09:06:19.038Z,47.80
2023-03-28T09:09:02.913Z,47.20
2023-03-28T09:11:40.624Z,47.10
2023-03-28T09:14:33.028Z,46.60
2023-03-28T09:17:09.046Z,45.40
2023-03-28T09:19:49.461Z,46.40
2023-03-28T09:22:29.853Z,45.80
2023-03-28T09:25:08.731Z,44.80
2023-03-28T09:27:39.854Z,44.30
2023-03-28T09:30:17.732Z,44.70
2023-03-28T09:32:45.295Z,46.40
2023-03-28T09:35:16.395Z,44.00
2023-03-28T09:37:48.587Z,43.70
2023-03-28T09:40:20.127Z,44.80
2023-03-28T09:42:53.765Z,43.30
2023-03-28T09:45:39.454Z,43.30
2023-03-28T09:48:11.681Z,44.10
2023-03-28T09:50:38.386Z,44.30
2023-03-28T09:53:05.144Z,43.70
2023-03-28T09:55:32.033Z,43.00
2023-03-28T09:58:04.931Z,42.80
2023-03-28T10:00:37.254Z,44.60
2023-03-28T10:03:05.475Z,42.50
2023-03-28T10:05:35.278Z,43.60
2023-03-28T10:08:05.096Z,42.20
2023-03-28T10:10:31.797Z,40.90
2023-03-28T10:13:02.041Z,43.10
2023-03-28T10:15:41.802Z,41.50
2023-03-28T10:18:15.075Z,41.50
2023-03-28T10:20:41.918Z,42.60
2023-03-28T10:23:13.105Z,43.10
2023-03-28T10:25:42.058Z,43.00
2023-03-28T10:28:15.048Z,43.70
2023-03-28T10:30:43.477Z,43.20
2023-03-28T10:33:24.690Z,41.60
2023-03-28T10:35:57.036Z,42.10
2023-03-28T10:38:26.740Z,40.50
2023-03-28T10:41:00.649Z,43.30
2023-03-28T10:43:32.969Z,42.90
2023-03-28T10:46:05.237Z,40.80
2023-03-28T10:48:34.579Z,40.90
2023-03-28T10:51:04.830Z,40.80
2023-03-28T10:53:40.630Z,39.40
2023-03-28T10:56:19.793Z,39.50
2023-03-28T10:58:54.732Z,42.10
2023-03-28T11:01:27.709Z,39.10
2023-03-28T11:04:05.430Z,39.50
2023-03-28T11:06:40.369Z,37.30
2023-03-28T11:09:16.655Z,38.50
2023-03-28T11:11:55.076Z,39.50
2023-03-28T11:14:33.510Z,39.30
2023-03-28T11:17:06.873Z,38.70
2023-03-28T11:19:46.969Z,38.40
2023-03-28T11:22:24.143Z,38.70
2023-03-28T11:28:01.083Z,39.10
2023-03-28T11:30:32.067Z,38.90
2023-03-28T11:33:08.249Z,40.30
2023-03-28T11:35:38.646Z,40.30
2023-03-28T11:38:11.528Z,38.70
2023-03-28T11:40:47.049Z,40.40
2023-03-28T11:43:21.313Z,39.50
2023-03-28T11:45:53.528Z,41.90
2023-03-28T11:48:25.765Z,41.00
2023-03-28T11:51:00.911Z,39.60
2023-03-28T11:53:32.143Z,39.50
2023-03-28T11:56:03.695Z,40.10
2023-03-28T11:58:35.437Z,39.20
2023-03-28T12:01:08.351Z,38.20
2023-03-28T12:06:16.877Z,41.00
2023-03-28T12:08:50.900Z,42.30
2023-03-28T12:11:23.740Z,41.00
2023-03-28T12:14:08.837Z,41.90
2023-03-28T12:16:43.897Z,40.60
2023-03-28T12:19:15.614Z,41.30
2023-03-28T12:21:43.892Z,41.00
2023-03-28T12:24:20.005Z,40.30
2023-03-28T12:27:01.824Z,40.50
2023-03-28T12:29:35.783Z,40.70
2023-03-28T12:32:11.364Z,39.90
2023-03-28T12:34:45.993Z,39.80
2023-03-28T12:37:18.236Z,40.90
2023-03-28T12:39:51.052Z,41.30
2023-03-28T12:42:20.410Z,40.80
2023-03-28T12:44:52.791Z,42.00
2023-03-28T12:47:23.958Z,40.50
2023-03-28T12:49:54.848Z,40.50
2023-03-28T12:52:25.334Z,42.00
2023-03-28T12:55:00.516Z,42.10
2023-03-28T12:57:44.075Z,41.00
2023-03-28T13:00:23.805Z,41.60
2023-03-28T13:02:59.607Z,40.80
2023-03-28T13:05:38.583Z,39.60
2023-03-28T13:08:14.813Z,40.40
2023-03-28T13:10:44.932Z,41.20
2023-03-28T13:13:20.558Z,41.50
2023-03-28T13:16:00.970Z,42.30
2023-03-28T13:18:29.373Z,41.40
2023-03-28T13:20:59.025Z,41.20
2023-03-28T13:23:33.250Z,40.60
2023-03-28T13:26:05.159Z,41.80
2023-03-28T13:28:42.541Z,42.70
2023-03-28T13:31:12.145Z,42.50
2023-03-28T13:33:45.688Z,42.60
2023-03-28T13:36:19.112Z,42.40
2023-03-28T13:38:47.585Z,43.30
2023-03-28T13:41:52.777Z,42.70
2023-03-28T13:44:22.638Z,42.20
2023-03-28T13:46:50.578Z,43.50
2023-03-28T13:49:19.636Z,44.10
2023-03-28T13:51:54.045Z,44.60
2023-03-28T13:54:21.059Z,44.50
2023-03-28T13:56:49.461Z,44.30
2023-03-28T13:59:18.354Z,45.40
2023-03-28T14:01:47.900Z,44.30
2023-03-28T14:04:19.625Z,44.20
2023-03-28T14:06:48.398Z,44.10
2023-03-28T14:09:19.813Z,44.50
2023-03-28T14:11:47.729Z,41.70
2023-03-28T14:14:18.265Z,41.80
2023-03-28T14:16:45.932Z,41.80
2023-03-28T14:19:20.067Z,41.60
2023-03-28T14:21:49.407Z,43.00
2023-03-28T14:24:20.010Z,41.90
2023-03-28T14:26:46.892Z,40.80
2023-03-28T14:29:15.582Z,41.90
2023-03-28T14:31:44.411Z,41.80
2023-03-28T14:34:18.229Z,40.80
2023-03-28T14:36:58.202Z,40.10
2023-03-28T14:39:25.857Z,40.90
2023-03-28T14:41:53.999Z,41.90
2023-03-28T14:44:21.258Z,42.00
2023-03-28T14:46:48.140Z,41.60
2023-03-28T14:49:19.531Z,42.90
2023-03-28T14:51:52.299Z,42.60
2023-03-28T14:54:25.161Z,41.00
2023-03-28T14:56:52.039Z,40.40
2023-03-28T14:59:19.839Z,39.00
2023-03-28T15:01:48.907Z,39.20
2023-03-28T15:04:18.841Z,39.20
2023-03-28T15:06:53.860Z,41.20
2023-03-28T15:09:28.261Z,40.40
2023-03-28T15:11:56.552Z,41.10
2023-03-28T15:14:30.640Z,42.20
2023-03-28T15:16:58.137Z,40.60
2023-03-28T15:19:27.116Z,40.30
2023-03-28T15:21:56.404Z,41.30
2023-03-28T15:24:26.445Z,41.80
2023-03-28T15:26:56.370Z,42.10
2023-03-28T15:29:23.803Z,41.90
2023-03-28T15:31:51.689Z,42.10
2023-03-28T15:34:20.852Z,41.70
2023-03-28T15:36:53.991Z,42.10
2023-03-28T15:39:26.122Z,42.20
2023-03-28T15:41:54.730Z,42.50
2023-03-28T15:44:30.518Z,41.30
2023-03-28T15:47:00.442Z,42.40
2023-03-28T15:49:27.793Z,42.40
2023-03-28T15:51:59.587Z,43.00
2023-03-28T15:54:31.849Z,43.80
2023-03-28T15:57:01.792Z,44.60
2023-03-28T15:59:34.257Z,45.00
2023-03-28T16:02:28.293Z,42.50
2023-03-28T16:04:59.832Z,41.20
2023-03-28T16:07:26.633Z,41.30
2023-03-28T16:09:54.615Z,41.50
2023-03-28T16:12:21.362Z,41.50
2023-03-28T16:14:50.058Z,41.30
2023-03-28T16:17:16.753Z,41.60
2023-03-28T16:19:43.386Z,42.00
2023-03-28T16:22:10.031Z,41.30
2023-03-28T16:24:36.713Z,41.10
2023-03-28T16:27:04.757Z,41.30
2023-03-28T16:29:31.680Z,41.70
2023-03-28T16:31:58.393Z,41.10
2023-03-28T16:34:25.142Z,41.10
2023-03-28T16:36:51.889Z,41.20
2023-03-28T16:39:18.656Z,41.00
2023-03-28T16:41:45.394Z,41.20
2023-03-28T16:44:13.419Z,40.80
2023-03-28T16:46:40.150Z,40.90
2023-03-28T16:49:06.875Z,41.10
2023-03-28T16:51:33.751Z,41.10
2023-03-28T16:54:00.649Z,41.20
2023-03-28T16:56:27.444Z,41.70
2023-03-28T16:58:54.311Z,41.40
2023-03-28T17:01:22.435Z,41.70
2023-03-28T17:03:49.931Z,41.70
2023-03-28T17:06:16.858Z,41.90
2023-03-28T17:08:43.933Z,42.00
2023-03-28T17:11:12.220Z,42.00
2023-03-28T17:13:39.941Z,42.40
2023-03-28T17:16:08.175Z,41.90
2023-03-28T17:18:36.607Z,42.10
2023-03-28T17:21:05.845Z,41.90
2023-03-28T17:23:33.585Z,42.00
2023-03-28T17:26:00.840Z,42.10
2023-03-28T17:28:29.112Z,41.60
2023-03-28T17:30:56.514Z,41.60
2023-03-28T17:33:23.396Z,41.80
2023-03-28T17:35:51.450Z,42.00
2023-03-28T17:38:18.127Z,42.00
2023-03-28T17:40:48.396Z,42.20
2023-03-28T17:43:15.323Z,42.10
2023-03-28T17:45:42.184Z,42.90
2023-03-28T17:48:08.928Z,42.20
2023-03-28T17:50:35.916Z,42.20
2023-03-28T17:53:04.024Z,42.00
2023-03-28T17:55:30.746Z,42.30
2023-03-28T17:57:57.419Z,42.40
2023-03-28T18:00:24.133Z,42.40
2023-03-28T18:02:50.893Z,42.40
2023-03-28T18:05:17.645Z,42.50
2023-03-28T18:07:44.259Z,42.50
2023-03-28T18:10:12.252Z,42.60
2023-03-28T18:12:38.910Z,42.50
2023-03-28T18:15:06.640Z,42.80
2023-03-28T18:17:33.393Z,42.90
2023-03-28T18:20:00.160Z,42.80
2023-03-28T18:22:26.843Z,42.80
2023-03-28T18:24:53.488Z,43.00
2023-03-28T18:27:21.523Z,43.20
2023-03-28T18:29:48.257Z,43.20
2023-03-28T18:32:15.002Z,43.50
2023-03-28T18:34:41.815Z,43.40
2023-03-28T18:37:08.464Z,43.60
2023-03-28T18:39:35.100Z,43.50
2023-03-28T18:42:01.840Z,43.70
2023-03-28T18:44:29.933Z,43.70
2023-03-28T18:46:56.601Z,43.70
2023-03-28T18:49:23.278Z,43.80
2023-03-28T18:51:50.116Z,43.90
2023-03-28T18:54:16.902Z,43.90
2023-03-28T18:56:43.603Z,43.90
2023-03-28T18:59:11.129Z,43.90
2023-03-28T19:01:39.241Z,44.00
2023-03-28T19:04:06.216Z,44.10
2023-03-28T19:06:35.362Z,44.20
2023-03-28T19:09:01.997Z,44.30
2023-03-28T19:11:28.651Z,44.30
2023-03-28T19:13:55.343Z,44.40
2023-03-28T19:16:22.031Z,44.40
2023-03-28T19:18:50.003Z,45.10
2023-03-28T19:21:16.898Z,44.50
2023-03-28T19:23:43.912Z,44.60
2023-03-28T19:26:12.563Z,44.60
2023-03-28T19:28:39.945Z,44.50
2023-03-28T19:31:08.576Z,44.70
2023-03-28T19:33:36.613Z,44.60
2023-03-28T19:36:05.768Z,44.70
2023-03-28T19:38:34.908Z,44.70
2023-03-28T19:41:02.816Z,44.70
2023-03-28T19:43:30.569Z,44.80
2023-03-28T19:46:01.303Z,44.80
2023-03-28T19:48:28.185Z,44.80
2023-03-28T19:50:54.831Z,44.80
2023-03-28T19:53:22.793Z,45.00
2023-03-28T19:55:53.112Z,45.00
2023-03-28T19:58:19.785Z,45.00
2023-03-28T20:00:47.655Z,45.10
2023-03-28T20:03:14.718Z,45.20
2023-03-28T20:05:41.497Z,45.00
2023-03-28T20:08:08.224Z,45.10
2023-03-28T20:10:39.921Z,45.20
2023-03-28T20:13:06.777Z,45.20
2023-03-28T20:15:33.684Z,45.20
2023-03-28T20:18:00.547Z,45.30
2023-03-28T20:20:27.282Z,45.30
2023-03-28T20:22:54.007Z,45.30
2023-03-28T20:25:20.768Z,45.40
2023-03-28T20:27:48.777Z,45.30
2023-03-28T20:30:15.717Z,45.40
2023-03-28T20:32:42.408Z,45.40
2023-03-28T20:35:09.855Z,45.40
2023-03-28T20:37:36.519Z,45.40
2023-03-28T20:40:03.275Z,45.50
2023-03-28T20:42:29.943Z,46.40
2023-03-28T20:44:58.179Z,46.50
2023-03-28T20:47:24.926Z,46.50
2023-03-28T20:49:51.823Z,46.50
2023-03-28T20:52:18.496Z,46.60
2023-03-28T20:54:45.323Z,46.60
2023-03-28T20:57:12.122Z,46.60
2023-03-28T20:59:38.836Z,46.50
2023-03-28T21:02:06.855Z,46.70
2023-03-28T21:04:33.570Z,46.90
2023-03-28T21:07:00.323Z,46.90
2023-03-28T21:09:27.165Z,46.80
2023-03-28T21:11:53.861Z,46.80
2023-03-28T21:14:20.546Z,46.90
2023-03-28T21:16:47.338Z,46.90
2023-03-28T21:19:15.407Z,46.90
2023-03-28T21:21:42.110Z,47.00
2023-03-28T21:24:08.929Z,46.90
2023-03-28T21:26:35.827Z,47.10
2023-03-28T21:29:02.593Z,47.20
2023-03-28T21:31:29.564Z,47.00
2023-03-28T21:33:57.817Z,47.10
2023-03-28T21:36:26.897Z,47.10
2023-03-28T21:38:54.072Z,47.20
2023-03-28T21:41:21.148Z,47.20
2023-03-28T21:43:47.848Z,47.20
2023-03-28T21:46:14.549Z,47.30
2023-03-28T21:48:41.472Z,47.30
2023-03-28T21:51:08.222Z,47.30
2023-03-28T21:53:37.638Z,47.20
2023-03-28T21:56:05.605Z,47.30
2023-03-28T21:58:32.759Z,47.30
2023-03-28T22:01:00.588Z,47.20
2023-03-28T22:03:28.054Z,47.30
2023-03-28T22:05:55.097Z,47.20
2023-03-28T22:08:22.789Z,47.20
2023-03-28T22:10:53.323Z,47.10
2023-03-28T22:13:21.281Z,47.10
2023-03-28T22:15:48.100Z,47.20
2023-03-28T22:18:14.943Z,47.10
2023-03-28T22:20:41.991Z,47.10
2023-03-28T22:23:09.565Z,47.00
2023-03-28T22:25:37.017Z,47.10
2023-03-28T22:28:08.583Z,47.00
2023-03-28T22:30:36.434Z,46.90
2023-03-28T22:33:03.376Z,47.00
2023-03-28T22:35:30.352Z,47.00
2023-03-28T22:37:57.214Z,47.00
2023-03-28T22:40:23.910Z,46.90
2023-03-28T22:42:50.667Z,46.90
2023-03-28T22:45:18.711Z,47.00
2023-03-28T22:47:45.509Z,46.90
2023-03-28T22:50:12.381Z,46.90
2023-03-28T22:52:39.072Z,46.90
2023-03-28T22:55:06.639Z,46.90
2023-03-28T22:57:33.379Z,46.90
2023-03-28T23:00:00.048Z,46.90
2023-03-28T23:02:28.396Z,47.10
2023-03-28T23:04:55.163Z,46.90
2023-03-28T23:07:21.850Z,46.90
2023-03-28T23:09:48.660Z,46.80
2023-03-28T23:12:15.469Z,46.90
2023-03-28T23:14:42.250Z,47.00
2023-03-28T23:17:08.900Z,46.90
2023-03-28T23:19:36.985Z,46.90
2023-03-28T23:22:03.652Z,47.00
2023-03-28T23:24:30.457Z,47.00
2023-03-28T23:26:57.138Z,47.00
2023-03-28T23:29:24.032Z,46.90
2023-03-28T23:31:50.773Z,47.00
2023-03-28T23:34:17.709Z,47.10
2023-03-28T23:36:45.713Z,46.90
2023-03-28T23:39:12.752Z,46.90
2023-03-28T23:41:39.504Z,47.00
2023-03-28T23:44:06.172Z,46.90
2023-03-28T23:46:32.999Z,47.10
2023-03-28T23:48:59.705Z,47.10
2023-03-28T23:51:26.402Z,47.10
2023-03-28T23:53:54.452Z,47.10
2023-03-28T23:56:21.143Z,47.10
2023-03-28T23:58:47.808Z,47.20
